createdAt,value
2023-02-20T05:00:28.715Z,0.00
2023-02-20T05:01:29.772Z,0.00
2023-02-20T05:02:29.704Z,0.00
2023-02-20T05:03:29.675Z,0.00
2023-02-20T05:04:29.795Z,0.00
2023-02-20T05:05:29.694Z,0.00
2023-02-20T05:06:29.637Z,0.00
2023-02-20T05:07:29.647Z,0.00
2023-02-20T05:08:29.633Z,0.00
2023-02-20T05:09:29.612Z,0.00
2023-02-20T05:10:29.616Z,0.00
2023-02-20T05:11:29.604Z,0.00
2023-02-20T05:12:29.577Z,0.00
2023-02-20T05:13:29.585Z,0.00
2023-02-20T05:14:29.581Z,0.00
2023-02-20T05:15:29.622Z,0.00
2023-02-20T05:16:29.565Z,0.00
2023-02-20T05:17:29.560Z,0.00
2023-02-20T05:18:29.504Z,0.00
2023-02-20T05:19:29.518Z,0.00
2023-02-20T05:20:29.491Z,0.00
2023-02-20T05:21:29.523Z,0.00
2023-02-20T05:22:29.482Z,0.00
2023-02-20T05:23:29.458Z,0.00
2023-02-20T05:24:29.439Z,0.00
2023-02-20T05:25:29.468Z,0.00
2023-02-20T05:26:29.434Z,0.00
2023-02-20T05:27:29.493Z,0.00
2023-02-20T05:28:29.432Z,0.00
2023-02-20T05:29:29.409Z,0.00
2023-02-20T05:30:29.460Z,0.00
2023-02-20T05:31:29.422Z,0.00
2023-02-20T05:32:29.360Z,0.00
2023-02-20T05:33:29.351Z,0.00
2023-02-20T05:34:29.325Z,0.00
2023-02-20T05:35:29.338Z,0.00
2023-02-20T05:36:29.327Z,0.00
2023-02-20T05:37:29.333Z,0.00
2023-02-20T05:38:29.282Z,0.00
2023-02-20T05:39:29.278Z,0.00
2023-02-20T05:40:29.273Z,0.00
2023-02-20T05:41:29.280Z,0.00
2023-02-20T05:42:29.259Z,0.00
2023-02-20T05:43:29.253Z,0.00
2023-02-20T05:44:29.249Z,0.00
2023-02-20T05:45:29.209Z,0.00
2023-02-20T05:46:29.305Z,0.00
2023-02-20T05:47:29.214Z,0.00
2023-02-20T05:48:29.240Z,0.00
2023-02-20T05:49:29.173Z,0.00
2023-02-20T05:50:29.114Z,0.00
2023-02-20T05:51:29.126Z,0.00
2023-02-20T05:52:29.094Z,0.00
2023-02-20T05:53:29.074Z,0.00
2023-02-20T05:54:29.108Z,0.00
2023-02-20T05:55:29.049Z,0.00
2023-02-20T05:56:29.050Z,0.00
2023-02-20T05:57:29.061Z,0.00
2023-02-20T05:58:29.026Z,0.00
2023-02-20T05:59:29.016Z,0.00
2023-02-20T06:00:29.004Z,0.00
2023-02-20T06:01:28.994Z,0.00
2023-02-20T06:02:28.977Z,0.00
2023-02-20T06:03:29.030Z,0.00
2023-02-20T06:04:29.027Z,0.00
2023-02-20T06:05:28.941Z,0.00
2023-02-20T06:06:28.957Z,0.00
2023-02-20T06:07:28.961Z,0.00
2023-02-20T06:08:28.938Z,0.00
2023-02-20T06:09:28.945Z,0.00
2023-02-20T06:10:28.931Z,0.00
2023-02-20T06:11:28.913Z,0.00
2023-02-20T06:12:28.989Z,0.00
2023-02-20T06:13:28.887Z,0.00
2023-02-20T06:14:28.876Z,0.00
2023-02-20T06:15:28.852Z,0.00
2023-02-20T06:16:28.950Z,0.00
2023-02-20T06:17:28.836Z,0.00
2023-02-20T06:18:28.813Z,0.00
2023-02-20T06:19:28.791Z,0.00
2023-02-20T06:20:28.781Z,0.00
2023-02-20T06:21:28.792Z,0.00
2023-02-20T06:22:28.783Z,0.00
2023-02-20T06:23:28.747Z,0.00
2023-02-20T06:24:28.739Z,0.00
2023-02-20T06:25:28.719Z,0.00
2023-02-20T06:26:28.722Z,0.00
2023-02-20T06:27:28.730Z,0.00
2023-02-20T06:28:28.704Z,0.00
2023-02-20T06:29:28.713Z,0.00
2023-02-20T06:30:28.743Z,0.00
2023-02-20T06:31:28.939Z,0.00
2023-02-20T06:32:28.759Z,0.00
2023-02-20T06:33:28.655Z,0.00
2023-02-20T06:34:28.649Z,0.00
2023-02-20T06:35:28.640Z,0.00
2023-02-20T06:36:28.645Z,0.00
2023-02-20T06:37:28.602Z,0.00
2023-02-20T06:38:28.606Z,0.00
2023-02-20T06:39:28.634Z,0.00
2023-02-20T06:40:28.583Z,0.00
2023-02-20T06:41:28.612Z,0.00
2023-02-20T06:42:28.554Z,0.00
2023-02-20T06:43:28.593Z,0.00
2023-02-20T06:44:28.578Z,0.00
2023-02-20T06:45:28.546Z,0.00
2023-02-20T06:46:28.552Z,0.00
2023-02-20T06:47:28.525Z,0.00
2023-02-20T06:48:28.589Z,0.00
2023-02-20T06:49:28.481Z,0.00
2023-02-20T06:50:28.494Z,0.00
2023-02-20T06:51:28.467Z,0.00
2023-02-20T06:52:28.451Z,0.00
2023-02-20T06:53:28.512Z,0.00
2023-02-20T06:54:28.520Z,5.62
2023-02-20T06:55:28.491Z,5.62
2023-02-20T06:56:28.502Z,5.62
2023-02-20T06:57:28.555Z,11.25
2023-02-20T06:58:28.410Z,11.25
2023-02-20T06:59:28.441Z,11.25
2023-02-20T07:00:28.425Z,11.25
2023-02-20T07:01:28.563Z,11.25
2023-02-20T07:02:28.390Z,11.25
2023-02-20T07:03:28.372Z,16.88
2023-02-20T07:04:28.402Z,16.88
2023-02-20T07:05:28.298Z,11.25
2023-02-20T07:06:28.371Z,16.88
2023-02-20T07:07:28.284Z,16.88
2023-02-20T07:08:28.316Z,16.88
2023-02-20T07:09:28.267Z,16.88
2023-02-20T07:10:28.279Z,16.88
2023-02-20T07:11:28.331Z,16.88
2023-02-20T07:12:28.477Z,16.88
2023-02-20T07:13:28.227Z,16.88
2023-02-20T07:14:28.210Z,22.50
2023-02-20T07:15:28.217Z,22.50
2023-02-20T07:16:28.210Z,22.50
2023-02-20T07:17:28.186Z,22.50
2023-02-20T07:18:28.174Z,22.50
2023-02-20T07:19:28.718Z,22.50
2023-02-20T07:20:28.194Z,22.50
2023-02-20T07:21:28.141Z,22.50
2023-02-20T07:22:28.127Z,22.50
2023-02-20T07:23:28.121Z,22.50
2023-02-20T07:24:28.164Z,22.50
2023-02-20T07:25:28.076Z,22.50
2023-02-20T07:26:28.164Z,22.50
2023-02-20T07:27:28.109Z,22.50
2023-02-20T07:28:28.089Z,22.50
2023-02-20T07:29:28.079Z,22.50
2023-02-20T07:30:28.117Z,22.50
2023-02-20T07:31:28.310Z,22.50
2023-02-20T07:32:28.104Z,22.50
2023-02-20T07:33:27.994Z,22.50
2023-02-20T07:34:27.978Z,22.50
2023-02-20T07:35:27.988Z,22.50
2023-02-20T07:36:27.984Z,22.50
2023-02-20T07:37:27.968Z,22.50
2023-02-20T07:38:28.747Z,22.50
2023-02-20T07:39:27.943Z,22.50
2023-02-20T07:40:27.924Z,22.50
2023-02-20T07:41:27.934Z,22.50
2023-02-20T07:42:27.921Z,22.50
2023-02-20T07:43:27.889Z,22.50
2023-02-20T07:44:27.883Z,22.50
2023-02-20T07:45:27.961Z,22.50
2023-02-20T07:46:27.860Z,22.50
2023-02-20T07:47:28.225Z,22.50
2023-02-20T07:48:27.868Z,22.50
2023-02-20T07:49:27.832Z,22.50
2023-02-20T07:50:27.830Z,22.50
2023-02-20T07:51:27.809Z,22.50
2023-02-20T07:52:27.801Z,22.50
2023-02-20T07:53:27.862Z,22.50
2023-02-20T07:54:27.918Z,22.50
2023-02-20T07:55:27.928Z,22.50
2023-02-20T07:56:27.804Z,22.50
2023-02-20T07:57:27.788Z,22.50
2023-02-20T07:58:27.823Z,22.50
2023-02-20T07:59:27.741Z,22.50
2023-02-20T08:00:27.778Z,22.50
2023-02-20T08:01:27.788Z,22.50
2023-02-20T08:02:27.690Z,22.50
2023-02-20T08:03:27.754Z,22.50
2023-02-20T08:04:27.675Z,22.50
2023-02-20T08:05:29.620Z,22.50
2023-02-20T08:06:27.683Z,22.50
2023-02-20T08:07:27.665Z,22.50
2023-02-20T08:08:27.655Z,22.50
2023-02-20T08:09:27.634Z,22.50
2023-02-20T08:10:27.744Z,22.50
2023-02-20T08:11:27.631Z,22.50
2023-02-20T08:12:27.606Z,22.50
2023-02-20T08:13:27.555Z,22.50
2023-02-20T08:14:27.569Z,22.50
2023-02-20T08:15:27.536Z,22.50
2023-02-20T08:16:27.624Z,22.50
2023-02-20T08:17:44.275Z,22.50
2023-02-20T08:18:27.546Z,22.50
2023-02-20T08:19:27.735Z,22.50
2023-02-20T08:20:27.649Z,22.50
2023-02-20T08:21:27.603Z,22.50
2023-02-20T08:22:39.980Z,22.50
2023-02-20T08:23:27.456Z,22.50
2023-02-20T08:24:27.437Z,22.50
2023-02-20T08:25:27.441Z,22.50
2023-02-20T08:26:27.544Z,22.50
2023-02-20T08:27:27.394Z,22.50
2023-02-20T08:28:27.508Z,22.50
2023-02-20T08:29:27.465Z,22.50
2023-02-20T08:30:27.628Z,22.50
2023-02-20T08:31:32.538Z,22.50
2023-02-20T08:32:27.467Z,22.50
2023-02-20T08:33:27.462Z,22.50
2023-02-20T08:34:27.366Z,22.50
2023-02-20T08:35:27.467Z,22.50
2023-02-20T08:36:27.383Z,22.50
2023-02-20T08:37:27.370Z,22.50
2023-02-20T08:38:27.404Z,22.50
2023-02-20T08:39:27.636Z,22.50
2023-02-20T08:40:27.376Z,22.50
2023-02-20T08:41:27.300Z,22.50
2023-02-20T08:42:27.266Z,22.50
2023-02-20T08:43:28.260Z,22.50
2023-02-20T08:44:27.221Z,22.50
2023-02-20T08:45:28.125Z,22.50
2023-02-20T08:46:27.248Z,22.50
2023-02-20T08:47:27.217Z,28.12
2023-02-20T08:48:27.312Z,28.12
2023-02-20T08:49:27.420Z,28.12
2023-02-20T08:50:27.170Z,28.12
2023-02-20T08:51:27.177Z,28.12
2023-02-20T08:52:27.162Z,28.12
2023-02-20T08:53:27.139Z,28.12
2023-02-20T08:54:27.133Z,28.12
2023-02-20T08:55:27.133Z,33.75
2023-02-20T08:56:27.219Z,33.75
2023-02-20T08:57:27.127Z,33.75
2023-02-20T08:58:27.164Z,33.75
2023-02-20T08:59:27.119Z,33.75
2023-02-20T09:00:27.157Z,33.75
2023-02-20T09:01:27.722Z,33.75
2023-02-20T09:02:27.089Z,33.75
2023-02-20T09:03:27.066Z,39.38
2023-02-20T09:04:27.068Z,39.38
2023-02-20T09:05:27.143Z,39.38
2023-02-20T09:06:27.224Z,39.38
2023-02-20T09:07:26.990Z,45.00
2023-02-20T09:08:27.126Z,45.00
2023-02-20T09:09:26.978Z,45.00
2023-02-20T09:10:26.992Z,45.00
2023-02-20T09:11:27.106Z,50.62
2023-02-20T09:12:26.996Z,50.62
2023-02-20T09:13:26.945Z,50.62
2023-02-20T09:14:26.957Z,50.62
2023-02-20T09:15:26.921Z,50.62
2023-02-20T09:16:27.058Z,50.62
2023-02-20T09:17:26.976Z,50.62
2023-02-20T09:18:26.860Z,50.62
2023-02-20T09:19:26.929Z,50.62
2023-02-20T09:20:26.948Z,50.62
2023-02-20T09:21:26.910Z,50.62
2023-02-20T09:22:26.835Z,50.62
2023-02-20T09:23:26.813Z,50.62
2023-02-20T09:24:26.806Z,50.62
2023-02-20T09:25:26.811Z,50.62
2023-02-20T09:26:26.822Z,50.62
2023-02-20T09:27:26.762Z,50.62
2023-02-20T09:28:26.808Z,50.62
2023-02-20T09:29:26.735Z,56.25
2023-02-20T09:30:26.981Z,56.25
2023-02-20T09:31:26.903Z,56.25
2023-02-20T09:32:26.843Z,61.88
2023-02-20T09:33:26.692Z,61.88
2023-02-20T09:34:26.740Z,67.50
2023-02-20T09:35:26.701Z,67.50
2023-02-20T09:36:26.670Z,67.50
2023-02-20T09:37:26.665Z,67.50
2023-02-20T09:38:26.629Z,67.50
2023-02-20T09:39:26.612Z,67.50
2023-02-20T09:40:26.623Z,67.50
2023-02-20T09:41:26.638Z,67.50
2023-02-20T09:42:26.738Z,67.50
2023-02-20T09:43:26.582Z,67.50
2023-02-20T09:44:26.575Z,73.12
2023-02-20T09:45:26.584Z,73.12
2023-02-20T09:46:26.621Z,73.12
2023-02-20T09:47:26.530Z,73.12
2023-02-20T09:48:26.532Z,73.12
2023-02-20T09:49:26.539Z,67.50
2023-02-20T09:50:26.537Z,67.50
2023-02-20T09:51:26.481Z,67.50
2023-02-20T09:52:26.705Z,67.50
2023-02-20T09:53:26.524Z,67.50
2023-02-20T09:54:26.562Z,67.50
2023-02-20T09:55:26.538Z,67.50
2023-02-20T09:56:26.451Z,67.50
2023-02-20T09:57:26.428Z,67.50
2023-02-20T09:58:26.439Z,73.12
2023-02-20T09:59:26.470Z,73.12
2023-02-20T10:00:26.475Z,78.75
2023-02-20T10:01:26.455Z,90.00
2023-02-20T10:02:26.528Z,95.62
2023-02-20T10:03:26.342Z,95.62
2023-02-20T10:04:26.367Z,106.88
2023-02-20T10:05:26.354Z,135.00
2023-02-20T10:06:26.373Z,157.50
2023-02-20T10:07:26.375Z,140.62
2023-02-20T10:08:26.293Z,135.00
2023-02-20T10:09:26.292Z,123.75
2023-02-20T10:10:26.279Z,140.62
2023-02-20T10:11:26.319Z,123.75
2023-02-20T10:12:26.278Z,140.62
2023-02-20T10:13:26.245Z,118.12
2023-02-20T10:14:26.237Z,106.88
2023-02-20T10:15:26.236Z,135.00
2023-02-20T10:16:26.389Z,123.75
2023-02-20T10:17:26.219Z,78.75
2023-02-20T10:18:26.291Z,73.12
2023-02-20T10:19:26.230Z,67.50
2023-02-20T10:20:26.174Z,73.12
2023-02-20T10:21:26.188Z,78.75
2023-02-20T10:22:26.185Z,73.12
2023-02-20T10:23:28.380Z,73.12
2023-02-20T10:24:26.170Z,73.12
2023-02-20T10:25:26.156Z,67.50
2023-02-20T10:26:26.122Z,73.12
2023-02-20T10:27:26.126Z,73.12
2023-02-20T10:28:26.104Z,61.88
2023-02-20T10:29:26.095Z,61.88
2023-02-20T10:30:26.095Z,61.88
2023-02-20T10:31:26.187Z,61.88
2023-02-20T10:32:26.160Z,56.25
2023-02-20T10:33:26.257Z,61.88
2023-02-20T10:34:26.066Z,61.88
2023-02-20T10:35:26.148Z,61.88
2023-02-20T10:36:26.093Z,67.50
2023-02-20T10:37:29.581Z,67.50
2023-02-20T10:38:26.056Z,67.50
2023-02-20T10:39:26.109Z,61.88
2023-02-20T10:40:26.074Z,61.88
2023-02-20T10:41:26.028Z,61.88
2023-02-20T10:42:26.005Z,61.88
2023-02-20T10:43:25.997Z,73.12
2023-02-20T10:44:25.919Z,84.38
2023-02-20T10:45:25.959Z,90.00
2023-02-20T10:46:25.974Z,123.75
2023-02-20T10:47:25.966Z,112.50
2023-02-20T10:48:25.937Z,101.25
2023-02-20T10:49:25.870Z,90.00
2023-02-20T10:50:25.868Z,90.00
2023-02-20T10:51:25.846Z,101.25
2023-02-20T10:52:34.026Z,112.50
2023-02-20T10:53:25.819Z,90.00
2023-02-20T10:54:25.977Z,84.38
2023-02-20T10:55:25.885Z,90.00
2023-02-20T10:56:25.773Z,106.88
2023-02-20T10:57:25.791Z,84.38
2023-02-20T10:58:25.761Z,95.62
2023-02-20T10:59:26.470Z,101.25
2023-02-20T11:00:25.752Z,95.62
2023-02-20T11:01:25.845Z,78.75
2023-02-20T11:02:25.736Z,73.12
2023-02-20T11:03:25.758Z,78.75
2023-02-20T11:04:25.755Z,78.75
2023-02-20T11:05:25.732Z,90.00
2023-02-20T11:06:25.656Z,135.00
2023-02-20T11:07:25.660Z,135.00
2023-02-20T11:08:25.768Z,90.00
2023-02-20T11:09:25.651Z,90.00
2023-02-20T11:10:25.650Z,112.50
2023-02-20T11:11:25.614Z,129.38
2023-02-20T11:12:25.591Z,118.12
2023-02-20T11:13:25.602Z,95.62
2023-02-20T11:14:37.980Z,84.38
2023-02-20T11:15:25.608Z,95.62
2023-02-20T11:16:25.557Z,84.38
2023-02-20T11:17:25.545Z,73.12
2023-02-20T11:18:25.528Z,73.12
2023-02-20T11:19:25.584Z,67.50
2023-02-20T11:20:25.508Z,73.12
2023-02-20T11:21:25.538Z,73.12
2023-02-20T11:22:25.507Z,67.50
2023-02-20T11:23:25.516Z,61.88
2023-02-20T11:24:25.529Z,67.50
2023-02-20T11:25:25.659Z,67.50
2023-02-20T11:26:25.518Z,67.50
2023-02-20T11:27:25.431Z,56.25
2023-02-20T11:28:25.406Z,50.62
2023-02-20T11:29:25.447Z,50.62
2023-02-20T11:30:25.483Z,56.25
2023-02-20T11:31:25.552Z,56.25
2023-02-20T11:32:25.366Z,61.88
2023-02-20T11:33:25.393Z,61.88
2023-02-20T11:34:25.431Z,56.25
2023-02-20T11:35:25.455Z,67.50
2023-02-20T11:36:25.395Z,67.50
2023-02-20T11:37:25.350Z,56.25
2023-02-20T11:38:25.323Z,50.62
2023-02-20T11:39:25.313Z,56.25
2023-02-20T11:40:25.353Z,67.50
2023-02-20T11:41:26.134Z,73.12
2023-02-20T11:42:25.275Z,84.38
2023-02-20T11:43:25.316Z,67.50
2023-02-20T11:44:25.289Z,67.50
2023-02-20T11:45:25.246Z,73.12
2023-02-20T11:46:25.295Z,67.50
2023-02-20T11:47:25.202Z,67.50
2023-02-20T11:48:25.217Z,84.38
2023-02-20T11:49:25.222Z,78.75
2023-02-20T11:50:25.184Z,101.25
2023-02-20T11:51:25.171Z,78.75
2023-02-20T11:52:25.170Z,61.88
2023-02-20T11:53:25.179Z,73.12
2023-02-20T11:54:25.154Z,73.12
2023-02-20T11:55:27.484Z,56.25
2023-02-20T11:56:25.104Z,45.00
2023-02-20T11:57:25.156Z,45.00
2023-02-20T11:58:25.090Z,45.00
2023-02-20T11:59:25.235Z,45.00
2023-02-20T12:00:25.156Z,45.00
2023-02-20T12:01:25.063Z,50.62
2023-02-20T12:02:25.096Z,45.00
2023-02-20T12:03:25.117Z,39.38
2023-02-20T12:04:25.136Z,33.75
2023-02-20T12:05:25.122Z,33.75
2023-02-20T12:06:25.015Z,28.12
2023-02-20T12:07:25.056Z,28.12
2023-02-20T12:08:24.975Z,33.75
2023-02-20T12:09:25.055Z,33.75
2023-02-20T12:10:24.976Z,28.12
2023-02-20T12:11:24.954Z,33.75
2023-02-20T12:12:24.954Z,33.75
2023-02-20T12:13:24.964Z,33.75
2023-02-20T12:14:24.891Z,33.75
2023-02-20T12:15:24.898Z,33.75
2023-02-20T12:16:24.972Z,45.00
2023-02-20T12:17:25.121Z,45.00
2023-02-20T12:18:24.895Z,56.25
2023-02-20T12:19:24.891Z,56.25
2023-02-20T12:20:24.832Z,56.25
2023-02-20T12:21:24.846Z,61.88
2023-02-20T12:22:24.833Z,56.25
2023-02-20T12:23:24.812Z,56.25
2023-02-20T12:24:24.809Z,61.88
2023-02-20T12:25:24.798Z,61.88
2023-02-20T12:26:24.784Z,56.25
2023-02-20T12:27:24.760Z,45.00
2023-02-20T12:28:24.781Z,50.62
2023-02-20T12:29:24.740Z,50.62
2023-02-20T12:30:24.777Z,50.62
2023-02-20T12:31:24.796Z,50.62
2023-02-20T12:32:24.720Z,39.38
2023-02-20T12:33:24.711Z,33.75
2023-02-20T12:34:24.713Z,28.12
2023-02-20T12:35:24.700Z,22.50
2023-02-20T12:36:24.685Z,22.50
2023-02-20T12:37:24.730Z,22.50
2023-02-20T12:38:24.639Z,22.50
2023-02-20T12:39:24.742Z,22.50
2023-02-20T12:40:24.618Z,16.88
2023-02-20T12:41:24.653Z,22.50
2023-02-20T12:42:24.686Z,22.50
2023-02-20T12:43:24.633Z,28.12
2023-02-20T12:44:24.574Z,28.12
2023-02-20T12:45:24.579Z,28.12
2023-02-20T12:46:24.576Z,28.12
2023-02-20T12:47:24.584Z,22.50
2023-02-20T12:48:24.529Z,22.50
2023-02-20T12:49:24.507Z,22.50
2023-02-20T12:50:24.570Z,22.50
2023-02-20T12:51:24.560Z,22.50
2023-02-20T12:52:24.907Z,28.12
2023-02-20T12:53:24.504Z,22.50
2023-02-20T12:54:24.466Z,22.50
2023-02-20T12:55:24.456Z,16.88
2023-02-20T12:56:24.492Z,16.88
2023-02-20T12:57:24.450Z,16.88
2023-02-20T12:58:24.449Z,22.50
2023-02-20T12:59:24.413Z,16.88
2023-02-20T13:00:24.383Z,16.88
2023-02-20T13:01:38.411Z,16.88
2023-02-20T13:02:39.497Z,16.88
2023-02-20T13:03:24.438Z,11.25
2023-02-20T13:04:24.372Z,11.25
2023-02-20T13:05:24.354Z,11.25
2023-02-20T13:06:24.318Z,11.25
2023-02-20T13:07:24.377Z,16.88
2023-02-20T13:08:24.312Z,16.88
2023-02-20T13:09:24.308Z,16.88
2023-02-20T13:10:24.297Z,16.88
2023-02-20T13:11:24.549Z,16.88
2023-02-20T13:12:24.310Z,16.88
2023-02-20T13:13:24.264Z,16.88
2023-02-20T13:14:24.290Z,16.88
2023-02-20T13:15:24.312Z,22.50
2023-02-20T13:16:24.289Z,16.88
2023-02-20T13:17:24.233Z,16.88
2023-02-20T13:18:24.222Z,16.88
2023-02-20T13:19:24.238Z,22.50
2023-02-20T13:20:24.192Z,16.88
2023-02-20T13:21:24.204Z,16.88
2023-02-20T13:22:24.175Z,22.50
2023-02-20T13:23:24.743Z,22.50
2023-02-20T13:24:24.203Z,22.50
2023-02-20T13:25:24.128Z,16.88
2023-02-20T13:26:24.204Z,16.88
2023-02-20T13:27:24.104Z,16.88
2023-02-20T13:28:24.090Z,16.88
2023-02-20T13:29:24.137Z,16.88
2023-02-20T13:30:24.157Z,22.50
2023-02-20T13:31:24.132Z,22.50
2023-02-20T13:32:24.096Z,16.88
2023-02-20T13:33:24.047Z,16.88
2023-02-20T13:34:24.040Z,16.88
2023-02-20T13:35:24.073Z,16.88
2023-02-20T13:36:24.020Z,16.88
2023-02-20T13:37:24.015Z,16.88
2023-02-20T13:38:24.040Z,16.88
2023-02-20T13:39:24.062Z,11.25
2023-02-20T13:40:24.086Z,11.25
2023-02-20T13:41:24.109Z,11.25
2023-02-20T13:42:23.938Z,11.25
2023-02-20T13:43:23.936Z,11.25
2023-02-20T13:44:23.918Z,11.25
2023-02-20T13:45:23.922Z,11.25
2023-02-20T13:46:23.922Z,11.25
2023-02-20T13:47:28.026Z,11.25
2023-02-20T13:48:23.872Z,11.25
2023-02-20T13:49:23.863Z,11.25
2023-02-20T13:50:23.870Z,11.25
2023-02-20T13:51:23.843Z,11.25
2023-02-20T13:52:23.837Z,11.25
2023-02-20T13:53:23.899Z,11.25
2023-02-20T13:54:23.808Z,5.62
2023-02-20T13:55:23.835Z,11.25
2023-02-20T13:56:23.790Z,11.25
2023-02-20T13:57:23.801Z,11.25
2023-02-20T13:58:24.855Z,11.25
2023-02-20T13:59:23.808Z,16.88
2023-02-20T14:00:23.780Z,11.25
2023-02-20T14:01:23.838Z,16.88
2023-02-20T14:02:23.744Z,16.88
2023-02-20T14:03:23.744Z,11.25
2023-02-20T14:04:23.724Z,16.88
2023-02-20T14:05:23.729Z,16.88
2023-02-20T14:06:23.724Z,11.25
2023-02-20T14:07:23.654Z,11.25
2023-02-20T14:08:23.650Z,11.25
2023-02-20T14:09:23.645Z,11.25
2023-02-20T14:10:23.721Z,16.88
2023-02-20T14:11:23.687Z,16.88
2023-02-20T14:12:23.613Z,16.88
2023-02-20T14:13:39.131Z,16.88
2023-02-20T14:14:24.388Z,16.88
2023-02-20T14:15:24.833Z,16.88
2023-02-20T14:16:23.715Z,16.88
2023-02-20T14:17:23.577Z,16.88
2023-02-20T14:18:23.628Z,16.88
2023-02-20T14:19:23.559Z,22.50
2023-02-20T14:20:23.545Z,16.88
2023-02-20T14:21:23.595Z,22.50
2023-02-20T14:22:23.506Z,22.50
2023-02-20T14:23:23.509Z,16.88
2023-02-20T14:24:23.513Z,16.88
2023-02-20T14:25:23.481Z,16.88
2023-02-20T14:26:23.463Z,11.25
2023-02-20T14:27:23.474Z,11.25
2023-02-20T14:28:23.577Z,11.25
2023-02-20T14:29:23.531Z,16.88
2023-02-20T14:30:23.553Z,16.88
2023-02-20T14:31:23.507Z,11.25
2023-02-20T14:32:23.433Z,16.88
2023-02-20T14:33:23.445Z,16.88
2023-02-20T14:34:24.228Z,16.88
2023-02-20T14:35:23.440Z,11.25
2023-02-20T14:36:23.858Z,11.25
2023-02-20T14:37:23.434Z,11.25
2023-02-20T14:38:23.373Z,11.25
2023-02-20T14:39:23.347Z,11.25
2023-02-20T14:40:23.378Z,11.25
2023-02-20T14:41:23.367Z,11.25
2023-02-20T14:42:24.481Z,5.62
2023-02-20T14:43:23.360Z,5.62
2023-02-20T14:44:23.246Z,11.25
2023-02-20T14:45:23.311Z,5.62
2023-02-20T14:46:23.314Z,11.25
2023-02-20T14:47:23.270Z,5.62
2023-02-20T14:48:23.238Z,5.62
2023-02-20T14:49:25.352Z,5.62
2023-02-20T14:50:23.186Z,5.62
2023-02-20T14:51:23.208Z,5.62
2023-02-20T14:52:23.240Z,11.25
2023-02-20T14:53:23.177Z,16.88
2023-02-20T14:54:23.149Z,16.88
2023-02-20T14:55:23.164Z,16.88
2023-02-20T14:56:23.341Z,22.50
2023-02-20T14:57:23.536Z,22.50
2023-02-20T14:58:23.241Z,22.50
2023-02-20T14:59:23.192Z,22.50
2023-02-20T15:00:23.119Z,22.50
2023-02-20T15:01:23.217Z,22.50
2023-02-20T15:02:33.135Z,22.50
2023-02-20T15:03:30.098Z,16.88
2023-02-20T15:04:23.044Z,16.88
2023-02-20T15:05:23.106Z,16.88
2023-02-20T15:06:23.115Z,16.88
2023-02-20T15:07:23.001Z,16.88
2023-02-20T15:08:23.010Z,16.88
2023-02-20T15:09:23.534Z,16.88
2023-02-20T15:10:23.006Z,16.88
2023-02-20T15:11:22.989Z,22.50
2023-02-20T15:12:22.958Z,16.88
2023-02-20T15:13:22.977Z,16.88
2023-02-20T15:14:22.943Z,16.88
2023-02-20T15:15:22.917Z,16.88
2023-02-20T15:16:22.976Z,16.88
2023-02-20T15:17:22.935Z,16.88
2023-02-20T15:18:22.900Z,16.88
2023-02-20T15:19:22.879Z,11.25
2023-02-20T15:20:22.895Z,11.25
2023-02-20T15:21:22.857Z,11.25
2023-02-20T15:22:22.836Z,11.25
2023-02-20T15:23:22.865Z,11.25
2023-02-20T15:24:22.844Z,5.62
2023-02-20T15:25:22.820Z,5.62
2023-02-20T15:26:22.790Z,5.62
2023-02-20T15:27:22.829Z,5.62
2023-02-20T15:28:22.774Z,5.62
2023-02-20T15:29:22.838Z,5.62
2023-02-20T15:30:22.824Z,5.62
2023-02-20T15:31:22.944Z,5.62
2023-02-20T15:32:22.777Z,5.62
2023-02-20T15:33:22.735Z,0.00
2023-02-20T15:34:22.762Z,0.00
2023-02-20T15:35:22.692Z,5.62
2023-02-20T15:36:22.779Z,5.62
2023-02-20T15:37:27.215Z,5.62
2023-02-20T15:38:23.353Z,5.62
2023-02-20T15:39:22.673Z,5.62
2023-02-20T15:40:22.682Z,5.62
2023-02-20T15:41:22.672Z,5.62
2023-02-20T15:42:22.703Z,5.62
2023-02-20T15:43:43.269Z,5.62
2023-02-20T15:44:22.656Z,5.62
2023-02-20T15:45:22.606Z,0.00
2023-02-20T15:46:22.664Z,0.00
2023-02-20T15:47:22.576Z,0.00
2023-02-20T15:48:22.567Z,0.00
2023-02-20T15:49:22.685Z,0.00
2023-02-20T15:50:22.553Z,0.00
2023-02-20T15:51:22.563Z,0.00
2023-02-20T15:52:22.514Z,0.00
2023-02-20T15:53:22.518Z,0.00
2023-02-20T15:54:22.500Z,0.00
2023-02-20T15:55:22.554Z,0.00
2023-02-20T15:56:22.472Z,0.00
2023-02-20T15:57:22.463Z,0.00
2023-02-20T15:58:25.274Z,0.00
2023-02-20T15:59:22.444Z,0.00
2023-02-20T16:00:22.483Z,0.00
2023-02-20T16:01:22.431Z,0.00
2023-02-20T16:02:22.572Z,0.00
2023-02-20T16:03:22.458Z,0.00
2023-02-20T16:04:22.415Z,0.00
2023-02-20T16:05:22.492Z,0.00
2023-02-20T16:06:22.435Z,0.00
2023-02-20T16:07:22.420Z,0.00
2023-02-20T16:08:22.390Z,0.00
2023-02-20T16:09:22.344Z,0.00
2023-02-20T16:10:22.368Z,0.00
2023-02-20T16:11:22.323Z,0.00
2023-02-20T16:12:22.315Z,0.00
2023-02-20T16:13:22.269Z,0.00
2023-02-20T16:14:22.289Z,0.00
2023-02-20T16:15:22.260Z,0.00
2023-02-20T16:16:25.041Z,0.00
2023-02-20T16:17:22.262Z,0.00
2023-02-20T16:18:23.834Z,0.00
2023-02-20T16:19:28.095Z,0.00
2023-02-20T16:20:22.268Z,0.00
2023-02-20T16:21:22.317Z,0.00
2023-02-20T16:22:22.701Z,0.00
2023-02-20T16:23:22.174Z,0.00
2023-02-20T16:24:22.194Z,0.00
2023-02-20T16:25:22.204Z,0.00
2023-02-20T16:26:22.162Z,0.00
2023-02-20T16:27:24.062Z,0.00
2023-02-20T16:28:22.139Z,0.00
2023-02-20T16:29:22.130Z,0.00
2023-02-20T16:30:32.943Z,0.00
2023-02-20T16:31:22.178Z,0.00
2023-02-20T16:32:22.126Z,0.00
2023-02-20T16:33:22.092Z,0.00
2023-02-20T16:34:22.487Z,0.00
2023-02-20T16:35:22.042Z,0.00
2023-02-20T16:36:25.050Z,0.00
2023-02-20T16:37:22.019Z,0.00
2023-02-20T16:38:22.028Z,0.00
2023-02-20T16:39:26.919Z,0.00
2023-02-20T16:40:22.031Z,0.00
2023-02-20T16:41:22.010Z,0.00
2023-02-20T16:42:21.982Z,0.00
2023-02-20T16:43:21.950Z,0.00
2023-02-20T16:44:21.943Z,0.00
2023-02-20T16:45:21.935Z,0.00
2023-02-20T16:46:37.359Z,0.00
2023-02-20T16:47:21.985Z,0.00
2023-02-20T16:48:21.921Z,0.00
2023-02-20T16:49:21.890Z,0.00
2023-02-20T16:50:21.883Z,0.00
2023-02-20T16:51:21.865Z,0.00
2023-02-20T16:52:21.885Z,0.00
2023-02-20T16:53:21.853Z,0.00
2023-02-20T16:54:21.840Z,0.00
2023-02-20T16:55:21.845Z,0.00
2023-02-20T16:56:21.821Z,0.00
2023-02-20T16:57:21.876Z,0.00
2023-02-20T16:58:21.851Z,0.00
2023-02-20T16:59:21.837Z,0.00
2023-02-20T17:00:21.874Z,0.00
2023-02-20T17:01:21.847Z,0.00
2023-02-20T17:02:21.803Z,0.00
2023-02-20T17:03:21.787Z,0.00
2023-02-20T17:04:21.783Z,0.00
2023-02-20T17:05:21.906Z,0.00
2023-02-20T17:06:21.762Z,0.00
2023-02-20T17:07:21.750Z,0.00
2023-02-20T17:08:21.736Z,0.00
2023-02-20T17:09:23.194Z,0.00
2023-02-20T17:10:21.809Z,0.00
2023-02-20T17:11:21.803Z,0.00
2023-02-20T17:12:21.977Z,0.00
2023-02-20T17:13:21.736Z,0.00
2023-02-20T17:14:21.752Z,0.00
2023-02-20T17:15:21.739Z,0.00
2023-02-20T17:16:30.813Z,0.00
2023-02-20T17:17:21.754Z,0.00
2023-02-20T17:18:21.648Z,0.00
2023-02-20T17:19:21.631Z,0.00
2023-02-20T17:20:21.639Z,0.00
2023-02-20T17:21:21.622Z,0.00
2023-02-20T17:22:21.818Z,0.00
2023-02-20T17:23:21.718Z,0.00
2023-02-20T17:24:21.561Z,0.00
2023-02-20T17:25:21.540Z,0.00
2023-02-20T17:26:21.754Z,0.00
2023-02-20T17:27:21.821Z,0.00
2023-02-20T17:28:21.525Z,0.00
2023-02-20T17:29:21.667Z,0.00
2023-02-20T17:30:21.788Z,0.00
2023-02-20T17:31:21.680Z,0.00
2023-02-20T17:32:21.506Z,0.00
2023-02-20T17:33:22.281Z,0.00
2023-02-20T17:34:21.529Z,0.00
2023-02-20T17:35:21.543Z,0.00
2023-02-20T17:36:21.511Z,0.00
2023-02-20T17:37:21.501Z,0.00
2023-02-20T17:38:21.528Z,0.00
2023-02-20T17:39:21.402Z,0.00
2023-02-20T17:40:21.540Z,0.00
2023-02-20T17:41:21.471Z,0.00
2023-02-20T17:42:21.413Z,0.00
2023-02-20T17:43:21.351Z,0.00
2023-02-20T17:44:21.355Z,0.00
2023-02-20T17:45:21.324Z,0.00
2023-02-20T17:46:21.335Z,0.00
2023-02-20T17:47:21.305Z,0.00
2023-02-20T17:48:21.387Z,0.00
2023-02-20T17:49:21.297Z,0.00
2023-02-20T17:50:21.274Z,0.00
2023-02-20T17:51:21.336Z,0.00
2023-02-20T17:52:21.313Z,0.00
2023-02-20T17:53:21.283Z,0.00
2023-02-20T17:54:21.179Z,0.00
2023-02-20T17:55:21.212Z,0.00
2023-02-20T17:56:21.166Z,0.00
2023-02-20T17:57:21.211Z,0.00
2023-02-20T17:58:21.130Z,0.00
2023-02-20T17:59:21.216Z,0.00
2023-02-20T18:00:21.167Z,0.00
2023-02-20T18:01:21.177Z,0.00